createdAt,value
2017-11-16T04:44:21.321Z,13.10
2017-11-16T04:46:48.119Z,17.00
2017-11-16T04:49:14.922Z,12.80
2017-11-16T04:51:41.789Z,15.60
2017-11-16T04:54:08.580Z,13.97
2017-11-16T04:56:35.450Z,14.77
2017-11-16T04:59:02.295Z,15.17
2017-11-16T05:01:29.853Z,12.53
2017-11-16T05:03:57.117Z,16.47
2017-11-16T05:06:23.951Z,14.93
2017-11-16T05:08:50.846Z,15.60
2017-11-16T05:11:17.637Z,17.13
2017-11-16T05:13:44.515Z,16.30
2017-11-16T05:16:11.582Z,17.50
2017-11-16T05:18:38.634Z,16.30
2017-11-16T05:21:05.924Z,14.30
2017-11-16T05:23:33.036Z,19.40
2017-11-16T05:25:59.849Z,18.57
2017-11-16T05:28:27.171Z,18.20
2017-11-16T05:30:54.035Z,19.17
2017-11-16T05:33:20.817Z,20.07
2017-11-16T05:35:48.118Z,16.77
2017-11-16T05:38:14.959Z,20.50
2017-11-16T05:40:42.073Z,18.83
2017-11-16T05:43:09.762Z,19.40
2017-11-16T05:45:36.600Z,20.50
2017-11-16T05:48:03.923Z,20.30
2017-11-16T05:50:30.789Z,19.40
2017-11-16T05:52:57.608Z,20.87
2017-11-16T05:55:24.381Z,22.77
2017-11-16T05:57:52.049Z,20.80
2017-11-16T06:00:18.872Z,22.87
2017-11-16T06:02:45.651Z,23.37
2017-11-16T06:05:13.076Z,24.97
2017-11-16T06:07:39.845Z,23.70
2017-11-16T06:10:06.612Z,23.07
2017-11-16T06:12:33.451Z,23.30
2017-11-16T06:15:00.256Z,26.90
2017-11-16T06:17:27.084Z,22.50
2017-11-16T06:19:53.900Z,23.17
2017-11-16T06:22:20.714Z,19.83
2017-11-16T06:24:47.527Z,21.40
2017-11-16T06:27:14.371Z,23.10
2017-11-16T06:29:41.144Z,23.73
2017-11-16T06:32:07.913Z,20.40
2017-11-16T06:34:34.721Z,23.90
2017-11-16T06:37:01.596Z,26.50
2017-11-16T06:39:28.380Z,23.37
2017-11-16T06:41:55.910Z,23.57
2017-11-16T06:44:23.306Z,25.07
2017-11-16T06:46:50.365Z,27.17
2017-11-16T06:49:17.180Z,23.53
2017-11-16T06:51:43.963Z,23.30
2017-11-16T06:54:10.943Z,25.50
2017-11-16T06:56:37.749Z,22.17
2017-11-16T06:59:04.734Z,24.00
2017-11-16T07:01:32.134Z,23.10
2017-11-16T07:03:58.943Z,22.13
2017-11-16T07:06:26.502Z,22.93
2017-11-16T07:08:53.872Z,24.43
2017-11-16T07:11:20.719Z,22.70
2017-11-16T07:13:48.483Z,23.03
2017-11-16T07:16:15.280Z,21.43
2017-11-16T07:18:42.120Z,23.63
2017-11-16T07:21:08.930Z,23.20
2017-11-16T07:23:36.318Z,26.57
2017-11-16T07:26:03.861Z,26.80
2017-11-16T07:28:30.663Z,23.30
2017-11-16T07:30:57.936Z,23.60
2017-11-16T07:33:24.774Z,24.10
2017-11-16T07:35:51.562Z,21.57
2017-11-16T07:38:19.301Z,25.27
2017-11-16T07:40:46.155Z,23.63
2017-11-16T07:43:12.980Z,25.00
2017-11-16T07:45:41.318Z,22.80
2017-11-16T07:48:08.864Z,25.57
2017-11-16T07:50:35.690Z,25.27
2017-11-16T07:53:02.579Z,23.47
2017-11-16T07:55:29.411Z,22.13
2017-11-16T07:57:57.009Z,24.20
2017-11-16T08:00:24.558Z,19.70
2017-11-16T08:02:51.382Z,22.20
2017-11-16T08:05:18.705Z,21.20
2017-11-16T08:07:46.577Z,22.93
2017-11-16T08:10:13.446Z,21.57
2017-11-16T08:12:41.227Z,23.57
2017-11-16T08:15:08.495Z,23.33
2017-11-16T08:17:35.979Z,23.90
2017-11-16T08:20:02.795Z,21.67
2017-11-16T08:22:29.604Z,21.43
2017-11-16T08:24:57.780Z,21.30
2017-11-16T08:27:24.555Z,21.30
2017-11-16T08:29:51.429Z,22.87
2017-11-16T08:32:18.244Z,22.57
2017-11-16T08:34:45.652Z,19.10
2017-11-16T08:37:12.460Z,22.40
2017-11-16T08:39:39.253Z,22.93
2017-11-16T08:42:06.105Z,22.37
2017-11-16T08:44:33.824Z,21.03
2017-11-16T08:47:00.699Z,22.13
2017-11-16T08:49:28.367Z,22.07
2017-11-16T08:51:55.199Z,19.90
2017-11-16T08:54:22.024Z,23.37
2017-11-16T08:56:49.876Z,22.93
2017-11-16T08:59:17.417Z,23.80
2017-11-16T09:01:44.269Z,19.67
2017-11-16T09:04:11.065Z,20.90
2017-11-16T09:06:37.858Z,19.00
2017-11-16T09:09:04.696Z,20.23
2017-11-16T09:11:31.648Z,20.03
2017-11-16T09:13:58.430Z,17.37
2017-11-16T09:16:26.054Z,19.40
2017-11-16T09:18:52.834Z,18.30
2017-11-16T09:21:19.664Z,17.00
2017-11-16T09:23:46.512Z,21.10
2017-11-16T09:26:14.014Z,17.00
2017-11-16T09:28:40.830Z,18.87
2017-11-16T09:31:08.247Z,18.57
2017-11-16T09:33:35.571Z,19.00
2017-11-16T09:36:02.328Z,19.37
2017-11-16T09:38:29.172Z,18.07
2017-11-16T09:40:56.753Z,16.40
2017-11-16T09:43:23.787Z,18.30
2017-11-16T09:45:51.355Z,18.07
2017-11-16T09:48:18.648Z,18.50
2017-11-16T09:50:45.463Z,17.63
2017-11-16T09:53:13.032Z,18.57
2017-11-16T09:55:40.324Z,16.20
2017-11-16T09:58:07.137Z,20.17
2017-11-16T10:00:33.995Z,18.23
2017-11-16T10:03:00.779Z,19.50
2017-11-16T10:05:27.538Z,15.37
2017-11-16T10:07:54.633Z,17.00
2017-11-16T10:10:22.134Z,19.70
2017-11-16T10:12:49.678Z,18.43
2017-11-16T10:15:16.505Z,17.90
2017-11-16T10:17:43.292Z,18.87
2017-11-16T10:20:10.057Z,23.67
2017-11-16T10:22:36.947Z,20.40
2017-11-16T10:25:04.464Z,18.47
2017-11-16T10:27:31.223Z,18.17
2017-11-16T10:29:58.037Z,18.50
2017-11-16T10:32:24.847Z,18.60
2017-11-16T10:34:51.679Z,17.83
2017-11-16T10:37:18.602Z,20.07
2017-11-16T10:39:45.555Z,19.60
2017-11-16T10:42:12.366Z,19.93
2017-11-16T10:44:39.427Z,19.37
2017-11-16T10:47:06.255Z,22.43
2017-11-16T10:49:33.022Z,20.03
2017-11-16T10:51:59.860Z,21.27
2017-11-16T10:54:26.709Z,22.83
2017-11-16T10:56:53.495Z,20.60
2017-11-16T10:59:20.444Z,21.73
2017-11-16T11:01:47.235Z,21.37
2017-11-16T11:04:15.040Z,23.30
2017-11-16T11:06:41.896Z,21.27
2017-11-16T11:09:08.674Z,21.70
2017-11-16T11:11:35.486Z,23.20
2017-11-16T11:14:02.345Z,20.50
2017-11-16T11:16:29.131Z,21.53
2017-11-16T11:18:55.929Z,22.77
2017-11-16T11:21:23.089Z,22.90
2017-11-16T11:23:49.892Z,23.30
2017-11-16T11:26:17.411Z,21.03
2017-11-16T11:28:44.314Z,21.30
2017-11-16T11:31:11.835Z,24.27
2017-11-16T11:33:39.496Z,24.40
2017-11-16T11:36:06.315Z,21.43
2017-11-16T11:38:33.118Z,21.00
2017-11-16T11:41:00.173Z,20.90
2017-11-16T11:43:27.481Z,16.37
2017-11-16T11:45:54.271Z,21.10
2017-11-16T11:48:21.046Z,19.10
2017-11-16T11:50:54.842Z,18.80
2017-11-16T11:53:21.651Z,22.00
2017-11-16T11:55:48.424Z,18.43
2017-11-16T11:58:15.278Z,17.93
2017-11-16T12:00:42.083Z,20.17
2017-11-16T12:03:08.892Z,17.67
2017-11-16T12:05:35.712Z,22.13
2017-11-16T12:08:03.121Z,24.90
2017-11-16T12:10:30.527Z,18.93
2017-11-16T12:12:57.333Z,18.70
2017-11-16T12:15:24.140Z,18.57
2017-11-16T12:17:51.008Z,18.00
2017-11-16T12:20:19.163Z,19.50
2017-11-16T12:22:45.956Z,18.73
2017-11-16T12:25:16.744Z,17.80
2017-11-16T12:27:43.889Z,18.77
2017-11-16T12:30:10.753Z,19.40
2017-11-16T12:32:38.285Z,17.33
2017-11-16T12:35:05.123Z,17.47
2017-11-16T12:37:32.091Z,17.80
2017-11-16T12:39:59.515Z,17.10
2017-11-16T12:42:26.351Z,17.83
2017-11-16T12:44:53.861Z,15.47
2017-11-16T12:47:20.924Z,17.37
2017-11-16T12:49:48.534Z,16.97
2017-11-16T12:52:15.832Z,16.77
2017-11-16T12:54:42.673Z,17.93
2017-11-16T12:57:10.237Z,18.00
2017-11-16T12:59:37.548Z,18.50
2017-11-16T13:02:05.724Z,17.47
2017-11-16T13:04:32.521Z,17.40
2017-11-16T13:06:59.773Z,16.00
2017-11-16T13:09:29.937Z,19.53
2017-11-16T13:11:57.150Z,16.57
2017-11-16T13:14:24.968Z,18.93
2017-11-16T13:16:51.759Z,18.83
2017-11-16T13:19:18.608Z,17.33
2017-11-16T13:21:56.855Z,17.70
2017-11-16T13:24:24.161Z,18.43
2017-11-16T13:26:51.720Z,16.97
2017-11-16T13:29:19.228Z,17.43
2017-11-16T13:31:46.069Z,16.20
2017-11-16T13:34:13.240Z,20.27
2017-11-16T13:36:40.167Z,16.80
2017-11-16T13:39:07.440Z,19.40
2017-11-16T13:41:45.615Z,17.80
2017-11-16T13:44:12.984Z,17.37
2017-11-16T13:46:39.977Z,18.70
2017-11-16T13:49:07.188Z,21.20
2017-11-16T13:51:34.607Z,19.33
2017-11-16T13:54:02.189Z,17.30
2017-11-16T13:56:30.164Z,17.77
2017-11-16T13:58:56.995Z,19.20
2017-11-16T14:01:24.546Z,18.10
2017-11-16T14:03:52.224Z,19.57
2017-11-16T14:06:19.046Z,18.57
2017-11-16T14:08:45.890Z,19.30
2017-11-16T14:11:13.887Z,17.83
2017-11-16T14:13:40.720Z,17.60
2017-11-16T14:16:07.857Z,18.43
2017-11-16T14:18:34.806Z,19.40
2017-11-16T14:21:02.366Z,19.43
2017-11-16T14:23:30.134Z,19.17
2017-11-16T14:25:57.694Z,18.90
2017-11-16T14:28:24.527Z,20.77
2017-11-16T14:30:51.573Z,18.60
2017-11-16T14:33:19.320Z,20.80
2017-11-16T14:35:46.850Z,19.60
2017-11-16T14:38:14.023Z,19.77
2017-11-16T14:40:40.812Z,22.83
2017-11-16T14:43:07.814Z,17.97
2017-11-16T14:45:34.814Z,19.33
2017-11-16T14:48:01.893Z,20.00
2017-11-16T14:50:30.297Z,18.60
2017-11-16T14:52:58.156Z,20.17
2017-11-16T14:55:25.153Z,20.00
2017-11-16T14:57:52.056Z,17.80
2017-11-16T15:00:18.829Z,19.50
2017-11-16T15:02:46.729Z,20.70
2017-11-16T15:05:14.432Z,21.20
2017-11-16T15:07:41.513Z,17.07
2017-11-16T15:10:08.333Z,20.13
2017-11-16T15:12:35.356Z,21.20
2017-11-16T15:15:03.220Z,19.37
2017-11-16T15:17:30.217Z,22.60
2017-11-16T15:19:57.670Z,21.00
2017-11-16T15:22:24.681Z,20.43
2017-11-16T15:24:51.540Z,20.43
2017-11-16T15:27:19.077Z,20.47
2017-11-16T15:29:46.685Z,19.17
2017-11-16T15:32:14.268Z,19.87
2017-11-16T15:34:41.321Z,19.27
2017-11-16T15:37:08.113Z,18.87
2017-11-16T15:39:35.963Z,19.03
2017-11-16T15:42:02.816Z,19.27
2017-11-16T15:44:29.653Z,21.33
2017-11-16T15:46:56.449Z,19.00
2017-11-16T15:49:23.277Z,19.47
2017-11-16T15:51:50.544Z,21.07
2017-11-16T15:54:18.077Z,22.83
2017-11-16T15:56:44.887Z,21.90
2017-11-16T15:59:11.693Z,19.60
2017-11-16T16:01:38.485Z,23.10
2017-11-16T16:04:05.305Z,21.93
2017-11-16T16:06:32.076Z,20.33
2017-11-16T16:08:58.894Z,21.00
2017-11-16T16:11:25.754Z,22.13
2017-11-16T16:13:52.575Z,16.03
2017-11-16T16:16:20.288Z,21.40
2017-11-16T16:18:47.115Z,23.47
2017-11-16T16:21:14.869Z,20.27
2017-11-16T16:23:41.673Z,22.00
2017-11-16T16:26:09.382Z,23.37
2017-11-16T16:28:36.980Z,24.00
2017-11-16T16:31:04.273Z,22.87
2017-11-16T16:33:31.129Z,22.63
2017-11-16T16:35:57.913Z,25.63
2017-11-16T16:38:24.695Z,22.63
2017-11-16T16:40:51.962Z,24.30
2017-11-16T16:43:18.795Z,24.70
2017-11-16T16:45:45.602Z,21.70
2017-11-16T16:48:12.457Z,24.77
2017-11-16T16:50:39.279Z,25.90
2017-11-16T16:53:06.468Z,23.90
2017-11-16T16:55:34.026Z,24.70
2017-11-16T16:58:01.631Z,26.57
2017-11-16T17:00:29.008Z,25.17
2017-11-16T17:02:55.835Z,26.17
2017-11-16T17:05:22.601Z,25.00
2017-11-16T17:07:50.746Z,24.27
2017-11-16T17:10:18.048Z,29.07
2017-11-16T17:12:44.976Z,26.60
2017-11-16T17:15:12.369Z,27.70
2017-11-16T17:17:39.187Z,26.87
2017-11-16T17:20:06.932Z,25.07
2017-11-16T17:22:33.704Z,25.90
2017-11-16T17:25:00.540Z,25.70
2017-11-16T17:27:27.316Z,26.27
2017-11-16T17:29:54.100Z,26.10
2017-11-16T17:32:20.937Z,24.80
2017-11-16T17:34:48.226Z,27.13
2017-11-16T17:37:15.034Z,27.17
2017-11-16T17:39:41.913Z,26.73
2017-11-16T17:42:09.329Z,24.63
2017-11-16T17:44:36.109Z,25.33
2017-11-16T17:47:02.948Z,24.63
2017-11-16T17:49:29.795Z,21.53
2017-11-16T17:51:56.629Z,23.53
2017-11-16T17:54:23.438Z,24.40
2017-11-16T17:56:50.246Z,23.97
2017-11-16T17:59:17.010Z,24.10
2017-11-16T18:01:44.822Z,26.77
2017-11-16T18:04:11.617Z,24.37
2017-11-16T18:06:38.694Z,22.20
2017-11-16T18:09:05.494Z,25.70
2017-11-16T18:11:32.279Z,26.57
2017-11-16T18:13:59.080Z,25.80
2017-11-16T18:16:26.500Z,24.77
2017-11-16T18:18:53.293Z,26.50
2017-11-16T18:21:20.076Z,24.63
2017-11-16T18:23:46.909Z,24.73
2017-11-16T18:26:14.195Z,23.20
2017-11-16T18:28:40.965Z,25.17
2017-11-16T18:31:07.864Z,23.60
2017-11-16T18:33:35.772Z,26.10
2017-11-16T18:36:02.564Z,24.20
2017-11-16T18:38:29.411Z,18.77
2017-11-16T18:40:56.324Z,24.10
2017-11-16T18:43:23.888Z,23.47
2017-11-16T18:45:51.245Z,23.23
2017-11-16T18:48:19.397Z,23.40
2017-11-16T18:50:46.209Z,23.60
2017-11-16T18:53:13.230Z,23.17
2017-11-16T18:55:40.796Z,23.53
2017-11-16T18:58:07.802Z,23.50
2017-11-16T19:00:34.654Z,22.13
2017-11-16T19:03:01.445Z,21.90
2017-11-16T19:05:28.893Z,19.37
2017-11-16T19:07:55.735Z,23.37
2017-11-16T19:10:22.505Z,20.37
2017-11-16T19:12:49.288Z,21.33
2017-11-16T19:15:16.097Z,18.30
2017-11-16T19:17:42.883Z,18.33
2017-11-16T19:20:09.700Z,18.03
2017-11-16T19:22:36.525Z,18.87
2017-11-16T19:25:03.359Z,18.00
2017-11-16T19:27:30.909Z,17.50
2017-11-16T19:29:57.774Z,17.93
2017-11-16T19:32:24.537Z,17.30
2017-11-16T19:34:51.797Z,19.47
2017-11-16T19:37:19.119Z,17.83
2017-11-16T19:39:46.173Z,18.13
2017-11-16T19:42:13.626Z,19.43
2017-11-16T19:44:41.165Z,19.00
2017-11-16T19:47:07.966Z,20.47
2017-11-16T19:49:34.743Z,18.40
2017-11-16T19:52:01.547Z,17.70
2017-11-16T19:54:28.344Z,19.40
2017-11-16T19:56:55.544Z,20.30
2017-11-16T19:59:22.411Z,19.23
2017-11-16T20:01:49.841Z,20.50
2017-11-16T20:04:17.345Z,17.70
2017-11-16T20:06:44.141Z,18.80
2017-11-16T20:09:10.925Z,22.13
2017-11-16T20:11:37.712Z,18.90
2017-11-16T20:14:05.101Z,20.53
2017-11-16T20:16:31.903Z,18.40
2017-11-16T20:18:59.468Z,17.57
2017-11-16T20:21:26.528Z,19.47
2017-11-16T20:23:54.048Z,19.17
2017-11-16T20:26:20.832Z,20.63
2017-11-16T20:28:47.654Z,20.03
2017-11-16T20:31:14.773Z,22.87
2017-11-16T20:33:41.568Z,19.07
2017-11-16T20:36:08.404Z,19.73
2017-11-16T20:38:50.030Z,20.60
2017-11-16T20:41:33.768Z,19.97
2017-11-16T20:44:01.581Z,20.20
2017-11-16T20:46:49.022Z,19.60
2017-11-16T20:49:35.583Z,21.40
2017-11-16T20:52:19.184Z,20.10
2017-11-16T20:54:46.329Z,20.40
2017-11-16T20:57:13.136Z,20.47
2017-11-16T20:59:39.977Z,20.87
2017-11-16T21:02:06.793Z,19.67
2017-11-16T21:04:33.608Z,20.00
2017-11-16T21:07:00.776Z,20.10
2017-11-16T21:09:27.568Z,18.73
2017-11-16T21:11:54.376Z,22.67
2017-11-16T21:14:22.142Z,21.90
2017-11-16T21:16:48.965Z,22.93
2017-11-16T21:19:15.754Z,21.87
2017-11-16T21:21:43.637Z,20.47
2017-11-16T21:24:10.437Z,21.20
2017-11-16T21:26:37.233Z,14.93
2017-11-16T21:29:04.669Z,13.80
2017-11-16T21:31:31.483Z,11.63
2017-11-16T21:33:58.244Z,6.50
2017-11-16T21:36:25.060Z,3.57
2017-11-16T21:38:51.837Z,2.60
2017-11-16T21:41:18.610Z,3.23
2017-11-16T21:43:45.458Z,2.07
2017-11-16T21:46:12.297Z,1.73
2017-11-16T21:48:39.086Z,1.43
2017-11-16T21:51:05.951Z,2.10
2017-11-16T21:53:33.694Z,1.30
2017-11-16T21:56:00.763Z,1.37
2017-11-16T21:58:27.600Z,2.03
2017-11-16T22:00:54.447Z,1.10
2017-11-16T22:03:21.554Z,1.17
2017-11-16T22:05:51.155Z,1.90
2017-11-16T22:08:17.957Z,1.70
2017-11-16T22:10:45.359Z,1.93
2017-11-16T22:13:12.144Z,1.87
2017-11-16T22:15:38.957Z,1.73
2017-11-16T22:18:05.799Z,1.67
2017-11-16T22:20:33.051Z,1.80
2017-11-16T22:22:59.811Z,2.40
2017-11-16T22:25:26.660Z,1.80
2017-11-16T22:27:53.586Z,1.70
2017-11-16T22:30:20.368Z,1.80
2017-11-16T22:32:47.167Z,1.73
2017-11-16T22:35:13.972Z,1.07
2017-11-16T22:37:40.749Z,1.40
2017-11-16T22:40:07.992Z,1.67
2017-11-16T22:42:34.781Z,1.67
2017-11-16T22:45:01.549Z,1.60
2017-11-16T22:47:28.320Z,1.17
2017-11-16T22:49:55.131Z,1.13
2017-11-16T22:52:21.924Z,1.20
2017-11-16T22:54:48.713Z,1.40
2017-11-16T22:57:15.528Z,1.07
2017-11-16T22:59:42.288Z,1.37
2017-11-16T23:02:09.060Z,1.30
2017-11-16T23:04:36.003Z,0.90
2017-11-16T23:07:02.789Z,0.93
2017-11-16T23:09:30.160Z,1.63
